TAF Text Data
IDs:
Format:
Raw Decoded Include METAR

Data at: 1114 UTC 09 Jul 2020

Region: TOP
KATL 091004Z 0910/1012 32003KT P6SM FEW012 FEW080 BKN180
  FM091200 32005KT P6SM SCT015 BKN025
  FM091300 33005KT P6SM SCT025 BKN040
  PROB30 0921/1003 4SM TSRA BR OVC025CB
  FM100300 30003KT P6SM SCT040 SCT250
  FM100800 30003KT P6SM FEW018


KBOS 090814Z 0908/1012 24007KT P6SM SCT015
  FM091200 22007KT P6SM FEW015
  FM091500 12010KT P6SM SCT050
  FM092300 19009KT P6SM SCT050
  FM100700 18004KT P6SM BKN040
  FM100900 16004KT 5SM BR OVC015
  FM101100 14004KT 5SM BR BKN025


KBWI 090910Z 0909/1012 17005KT P6SM SCT015 SCT130
  FM091000 VRB03KT 6SM BR BKN008
  FM091300 VRB03KT P6SM BKN025
  FM091400 05005KT P6SM SCT035
  FM091700 09008KT P6SM SCT050
  FM100400 05008KT P6SM SCT015 BKN050
  FM100900 02008G16KT P6SM BKN015


KCLE 090525Z 0906/1012 VRB04KT P6SM FEW060 SCT150
  FM091900 03008KT P6SM VCTS SCT045CB BKN100
  TEMPO 0920/0923 1SM -TSRA BKN035CB
  FM092300 06006KT P6SM FEW050 SCT110


KCLT 090759Z 0908/1012 02005KT P6SM SCT017 SCT250
  TEMPO 0908/0912 SCT007 BKN017
  FM091400 03007KT P6SM SCT020 SCT050
  FM091600 03007KT P6SM SCT050
  FM100200 02003KT P6SM FEW250


KCVG 090859Z 0909/1012 00000KT P6SM FEW150
  TEMPO 0910/0912 5SM BR
  FM091300 VRB02KT P6SM FEW050
  FM091700 18005KT P6SM SCT050
  FM092000 21006KT P6SM VCSH SCT050
  FM092300 23004KT P6SM FEW060
  FM100100 VRB02KT P6SM FEW150


KDCA 091059Z 0911/1012 VRB03KT P6SM SCT008 BKN015
  TEMPO 0911/0912 BKN008
  FM091300 VRB03KT P6SM BKN025
  FM091400 06005KT P6SM SCT035
  FM091700 09008KT P6SM SCT050
  FM100400 05008KT P6SM SCT015 BKN050
  FM100900 36008G16KT P6SM BKN015


KDEN 091004Z 0910/1012 01010KT P6SM SCT150
  FM091900 05009KT P6SM FEW120
  FM092100 09012G22KT P6SM FEW100 BKN150
  FM100200 07009KT P6SM FEW080 SCT150
  FM100800 21007KT P6SM SCT080


KDFW 090900Z 0909/1012 17014KT P6SM SKC

KDTW 090903Z 0909/1012 20005KT P6SM BKN250
  FM091700 20007KT P6SM BKN060
  FM100000 VRB03KT P6SM SCT100 BKN250


KEWR 091103Z 0911/1012 21004KT P6SM SCT004 BKN007
  TEMPO 0911/0912 5SM BR BKN004
  FM091300 VRB03KT P6SM BKN012
  TEMPO 0913/0914 6SM BR BKN009
  FM091400 15004KT P6SM SCT020
  FM091500 13008KT P6SM FEW035 SCT250
  FM100100 09005KT P6SM SCT015 SCT250
  FM100500 08005KT P6SM SCT015 BKN040
  FM100700 08006KT P6SM VCSH OVC015


KFLL 090904Z 0909/1012 VRB05KT P6SM FEW030 SCT100 BKN250
  FM091700 17008KT P6SM SCT035 SCT200
  PROB30 0918/0924 6SM TSRA SCT025 BKN035CB
  FM100100 VRB04KT P6SM FEW025 SCT150


KIAD 091101Z 0911/1012 VRB03KT 6SM BR SCT015
  TEMPO 0912/0914 BKN015
  FM091400 05005KT P6SM SCT035
  FM091700 09008KT P6SM SCT050
  FM100500 03008KT P6SM SCT015 BKN050
  FM100900 36008KT P6SM BKN015


KIAH 090859Z 0909/1012 19006KT P6SM SCT014
  FM091100 19006KT P6SM SCT015 BKN025
  FM091500 20010KT P6SM SCT035 SCT045
  FM100100 17008KT P6SM SKC
  FM100900 19006KT P6SM SCT015 SCT025


KJFK 090908Z 0909/1012 22004KT P6SM FEW250
  FM091300 16006KT P6SM FEW020 FEW250
  FM091700 14011KT P6SM FEW020 SCT250
  FM100200 11006KT P6SM SCT015 SCT250
  FM100600 09006KT P6SM SCT015 BKN030
  FM100800 09009KT P6SM VCSH OVC015


KLAS 090852Z 0909/1012 20009KT P6SM SKC
  FM091200 VRB05KT P6SM SKC
  FM091800 19010G18KT P6SM SKC
  FM092100 22014G22KT P6SM SKC
  FM100300 21008KT P6SM SKC


KLAX 090934Z 0910/1012 26005KT P6SM FEW007 BKN011
  FM091600 VRB03KT 6SM HZ OVC012
  FM091700 25006KT P6SM SCT015
  FM092100 26012KT P6SM SKC
  FM100300 26006KT P6SM SKC
  FM100900 25006KT 5SM BR BKN008


KLGA 090908Z 0909/1012 21004KT P6SM FEW250
  FM091300 VRB05KT P6SM FEW020 FEW250
  FM091600 14010KT P6SM FEW035 SCT250
  FM100100 11006KT P6SM SCT015 SCT250
  FM100600 09007KT P6SM SCT015 BKN030
  FM100800 08010KT P6SM VCSH OVC015


KMCO 090857Z 0909/1012 25005KT P6SM SCT250
  FM091400 28009KT P6SM SCT030 SCT250
  FM091700 27009KT P6SM VCTS SCT045CB SCT060 SCT250
  TEMPO 0918/0921 VRB15G25KT 3SM TSRA BKN025CB BKN050
  FM092100 28008KT P6SM VCSH SCT035 SCT100 BKN250
  FM100000 27006KT P6SM FEW040 SCT060 SCT250
  FM100800 23006KT P6SM VCSH SCT040 SCT060 SCT250


KMDW 090900Z 0909/1012 20005KT P6SM FEW050 BKN250
  FM091500 19010KT P6SM SCT050 BKN150
  PROB30 0920/0924 VRB15G25KT 3SM TSRA BKN035CB
  FM100000 18005KT P6SM BKN050
  TEMPO 1000/1004 VRB25G35KT 3SM TSRA BKN025 OVC050CB


KMEM 090859Z 0909/1012 19004KT P6SM BKN070
  FM091000 00000KT 3SM BR SCT005 SCT250
  FM091500 23004KT P6SM BKN050
  FM091800 25006KT P6SM VCTS SCT040CB


KMIA 090904Z 0909/1012 VRB05KT P6SM FEW030 SCT100 BKN250
  FM091700 17008KT P6SM SCT035 SCT200
  PROB30 0918/0924 6SM TSRA SCT025 BKN035CB
  FM100100 VRB04KT P6SM FEW025 SCT150


KMSP 090910Z 0909/1012 21007KT P6SM VCSH SCT060 BKN150
  TEMPO 0910/0911 4SM -TSRA BR OVC040CB
  FM091100 16005KT P6SM SCT050 BKN100
  FM091500 30007KT P6SM BKN050


KORD 090900Z 0909/1012 20005KT P6SM FEW050 BKN250
  FM091500 20010KT P6SM SCT050 BKN150
  PROB30 0920/0924 VRB15G25KT 3SM TSRA BKN035CB
  FM100000 VRB05KT P6SM BKN050
  TEMPO 1000/1004 VRB25G35KT 3SM TSRA BKN025 OVC050CB


KPDX 090908Z 0909/1006 33005KT P6SM SCT050
  FM091000 32004KT P6SM BKN040
  FM091500 VRB04KT P6SM SCT025 BKN040
  FM091900 30007KT P6SM -SHRA SCT025 BKN040
  FM100300 32006KT P6SM OVC050


KPHL 090855Z 0909/1012 VRB04KT P6SM SCT005
  TEMPO 0909/0912 5SM BR BKN005
  FM091300 12007KT P6SM SCT050
  FM100600 07006KT P6SM OVC025
  FM100900 06008KT P6SM OVC010


KPHX 091001Z 0910/1012 09005KT P6SM SKC
  FM091800 25006KT P6SM FEW120
  FM092300 28012G18KT P6SM FEW120
  FM100400 28008KT P6SM SKC


KPIT 090900Z 0909/1012 00000KT P6SM SKC
  FM091400 14004KT P6SM SCT060
  FM092000 16005KT P6SM VCTS SCT050CB
  FM100000 12003KT P6SM SCT070


KSAN 090833Z 0909/1012 VRB04KT P6SM OVC011
  FM091700 VRB04KT P6SM SCT013
  FM092000 27008KT P6SM SCT016
  FM100300 VRB04KT P6SM BKN009


KSEA 090905Z 0909/1012 VRB04KT P6SM BKN045 OVC070
  FM091200 19004KT P6SM -SHRA BKN022 OVC035
  FM091700 21006KT 6SM -SHRA OVC018
  FM092100 22006KT P6SM VCSH SCT020 BKN040
  FM100500 24005KT P6SM BKN040


KSFO 090856Z 0909/1012 29006KT P6SM FEW012
  FM091700 31012KT P6SM SKC
  FM092100 29020G26KT P6SM SKC
  FM100400 28016KT P6SM SKC
  FM100800 28010KT P6SM SCT015


KSLC 090834Z 0909/1012 19005KT P6SM SKC
  FM091400 14006KT P6SM SKC
  TEMPO 0915/0918 30006KT
  FM091800 33010KT P6SM SKC
  FM100300 12006KT P6SM SKC


KSTL 090853Z 0909/1012 VRB04KT P6SM SKC
  FM091600 20008KT P6SM SCT050
  FM092100 21008KT P6SM VCTS BKN050CB
  FM100400 26007KT P6SM SCT070


KTPA 090901Z 0909/1012 28007KT P6SM FEW025 BKN250
  FM091000 27006KT P6SM SCT025 BKN250
  FM091400 28009KT P6SM VCTS SCT030CB SCT130 BKN250
  FM092000 28012KT P6SM SCT035 SCT130 BKN250
  FM100000 28007KT P6SM FEW030 BKN250